Westminster West, VT

2:12 PM EDT on September 19, 2014 (GMT -0400)
Atop a hill overlooking Spofford Lake | Change Station
CLOSE
Current Station
Personal Weather Station
Location: Spofford, NH
Elevation: 898 ft
Nearby Weather Stations

Elev 898 ft 42.90 °N, 72.44 °W | Updated 1 second ago

Clear
Clear
63.1 °F
Feels Like 63.1 °F
N
0.0
Wind Variable Wind from North
Gusts 0.0 mph

Today
High -- | Low -- °F
--% Chance of Precip.
Yesterday
High -- | Low -- °F
Precip. -- in
6:34 AM 6:53 PM
Waning Crescent, 18% visible
Pressure 30.38 in
Visibility 10.0 miles
Clouds Clear
Dew Point 23 °F
Humidity 21%
Rainfall 0.00 in
Snow Depth Not available.
UV 7 out of 12
Pollen 2.60 out of 12
Ozone Good
PM2.5 Good
Flu Activity Not available.
METAR KEEN 191755Z AUTO 05003KT 10SM CLR 13/M03 A3038 RMK AO1 10130 20020 57003

More Conditions Fewer Conditions

Pressure 30.38 in
Visibility 10.0 miles
Clouds Clear
Dew Point 23 °F
Humidity 21%
Rainfall 0.00 in
Snow Depth Not available.
UV 7 out of 12
Pollen 2.60 out of 12
Ozone Good
PM2.5 Good
Flu Activity Not available.
METAR KEEN 191755Z AUTO 05003KT 10SM CLR 13/M03 A3038 RMK AO1 10130 20020 57003

More Conditions Fewer Conditions

10-Day Weather Forecast

Almanac

Astronomy

Sep. 19, 2014 Rise Set
Actual Time 6:34 AM EDT 6:53 PM EDT
Civil Twilight 6:05 AM EDT 7:21 PM EDT
Nautical Twilight 5:32 AM EDT 7:54 PM EDT
Astronomical Twilight 4:58 AM EDT 8:28 PM EDT
Moon 2:11 AM EDT 4:24 PM EDT
Length of Visible Light 13h 15m
Length of Day
12h 18m
Tomorrow will be 2m 54s shorter.
Waning Crescent, 18% of the Moon is Illuminated
Today
Waning Crescent
Sep 24
New
Oct 1
First Quarter
Oct 8
Full
Oct 15
Last Quarter

Today's Extremes

State Highs State Lows

Community

WunderPhotos

Upload Photos

1,754,678 photos uploaded!

Nearby

Air Quality

  Air Quality AQ Index Pollutant
Yesterday Good
OZONE
Yesterday Good
PM2.5
Current Good
OZONE
Current Good
PM2.5
Friday Good
PM2.5
Friday Good
OZONE
Saturday Good
OZONE
Saturday Good
PM2.5
Sunday Good
PM2.5
Monday Good
PM2.5

Snow Depth

Station Depth Elevation
No new snow has been reported.

Earthquake Activity

City Distance Mag. Time & Date
No recent earthquake activity has been reported nearby.
Minimum magnitude displayed is 2.5.

Coastal Water Temperatures

Place Temperature
No Stations Reporting

Nearby Weather Stations